RYR50XY LFMU-EGGW
Flight info
| Callsign | RYR50XY |
|---|---|
| Flight time | 1h 47m |
| Altitude | 36000 |
| Route | FJR DCT NG DCT MOLEN DCT MTL DCT ETREK DCT MADOT DCT MOPEM/N0437F380 DCT CACHI DCT AVLON DCT OKRIX DCT BRY DCT CLM DCT KOPOR DCT PIREG DCT SOSUN DCT SUBIP UM733 UNDUG |
| Aircraft | B738/M-SDE3FGILRWY/SB1 |
Departure
| Time | 2026-04-27 15:09 |
|---|---|
| Airport | Béziers Vias airport (LFMU) |
Arrival
| Time | 2026-04-27 16:57 |
|---|---|
| Airport | London Luton Airport (EGGW) |
| Time | Latitude | Longitude | Altitude | Speed | Heading |
|---|---|---|---|---|---|
| 2026-04-27 14:47 | 43.32149 | 3.35380 | 51 ft | 0 kts | 147° |
| 2026-04-27 15:04 | 43.32148 | 3.35380 | 57 ft | 0 kts | 150° |
| 2026-04-27 15:04 | 43.32147 | 3.35380 | 57 ft | 1 kts | 158° |
| 2026-04-27 15:04 | 43.32136 | 3.35371 | 53 ft | 3 kts | 230° |
| 2026-04-27 15:05 | 43.32138 | 3.35337 | 54 ft | 4 kts | 297° |
| 2026-04-27 15:05 | 43.32173 | 3.35319 | 55 ft | 7 kts | 3° |
| 2026-04-27 15:05 | 43.32228 | 3.35325 | 58 ft | 8 kts | 4° |
| 2026-04-27 15:05 | 43.32285 | 3.35331 | 58 ft | 8 kts | 4° |
| 2026-04-27 15:06 | 43.32337 | 3.35313 | 55 ft | 8 kts | 316° |
| 2026-04-27 15:06 | 43.32350 | 3.35230 | 56 ft | 12 kts | 274° |
| 2026-04-27 15:06 | 43.32358 | 3.35069 | 55 ft | 21 kts | 274° |
| 2026-04-27 15:06 | 43.32370 | 3.34840 | 58 ft | 26 kts | 274° |
| 2026-04-27 15:07 | 43.32384 | 3.34598 | 56 ft | 25 kts | 275° |
| 2026-04-27 15:07 | 43.32396 | 3.34405 | 56 ft | 18 kts | 275° |
| 2026-04-27 15:07 | 43.32394 | 3.34267 | 61 ft | 10 kts | 246° |
| 2026-04-27 15:07 | 43.32390 | 3.34203 | 57 ft | 3 kts | 315° |
| 2026-04-27 15:08 | 43.32407 | 3.34214 | 55 ft | 3 kts | 67° |
| 2026-04-27 15:08 | 43.32405 | 3.34247 | 55 ft | 4 kts | 94° |
| 2026-04-27 15:08 | 43.32405 | 3.34264 | 52 ft | 0 kts | 93° |
| 2026-04-27 15:08 | 43.32404 | 3.34292 | 56 ft | 12 kts | 93° |
| 2026-04-27 15:09 | 43.32377 | 3.34769 | 58 ft | 90 kts | 94° |
| 2026-04-27 15:09 | 43.32313 | 3.35960 | 51 ft | 158 kts | 95° |
| 2026-04-27 15:09 | 43.32212 | 3.37635 | 463 ft | 181 kts | 96° |
| 2026-04-27 15:09 | 43.32138 | 3.39347 | 1413 ft | 179 kts | 97° |
| 2026-04-27 15:10 | 43.32249 | 3.41138 | 2032 ft | 204 kts | 70° |
| 2026-04-27 15:10 | 43.33142 | 3.42712 | 2523 ft | 222 kts | 42° |
| 2026-04-27 15:10 | 43.34373 | 3.44183 | 2817 ft | 246 kts | 42° |
| 2026-04-27 15:10 | 43.35653 | 3.45854 | 3359 ft | 262 kts | 45° |
| 2026-04-27 15:11 | 43.36914 | 3.47727 | 4166 ft | 268 kts | 48° |
| 2026-04-27 15:11 | 43.38129 | 3.49664 | 5173 ft | 268 kts | 49° |
| 2026-04-27 15:11 | 43.39349 | 3.51631 | 6045 ft | 272 kts | 47° |
| 2026-04-27 15:11 | 43.40582 | 3.53619 | 6911 ft | 275 kts | 47° |
| 2026-04-27 15:12 | 43.41832 | 3.55631 | 7746 ft | 279 kts | 47° |
| 2026-04-27 15:12 | 43.43099 | 3.57669 | 8601 ft | 281 kts | 46° |
| 2026-04-27 15:12 | 43.44310 | 3.59766 | 9428 ft | 287 kts | 54° |
| 2026-04-27 15:12 | 43.45273 | 3.62195 | 10241 ft | 291 kts | 62° |
| 2026-04-27 15:13 | 43.46174 | 3.64770 | 10671 ft | 310 kts | 62° |
| 2026-04-27 15:13 | 43.47136 | 3.67564 | 10861 ft | 335 kts | 63° |
| 2026-04-27 15:13 | 43.48163 | 3.70518 | 11323 ft | 348 kts | 63° |
| 2026-04-27 15:13 | 43.49224 | 3.73536 | 12056 ft | 352 kts | 62° |
| 2026-04-27 15:14 | 43.50309 | 3.76592 | 12786 ft | 357 kts | 63° |
| 2026-04-27 15:14 | 43.51416 | 3.79689 | 13427 ft | 365 kts | 63° |
| 2026-04-27 15:14 | 43.52529 | 3.82791 | 14168 ft | 368 kts | 64° |
| 2026-04-27 15:14 | 43.53670 | 3.85972 | 14864 ft | 371 kts | 64° |
| 2026-04-27 15:15 | 43.54834 | 3.89164 | 15527 ft | 375 kts | 61° |
| 2026-04-27 15:15 | 43.56360 | 3.92088 | 16210 ft | 378 kts | 46° |
| 2026-04-27 15:15 | 43.58377 | 3.94444 | 16781 ft | 383 kts | 32° |
| 2026-04-27 15:15 | 43.60654 | 3.96358 | 17538 ft | 384 kts | 30° |
| 2026-04-27 15:16 | 43.62959 | 3.98262 | 18146 ft | 389 kts | 30° |
| 2026-04-27 15:16 | 43.65280 | 4.00184 | 18817 ft | 391 kts | 30° |
| 2026-04-27 15:16 | 43.67593 | 4.02111 | 19289 ft | 397 kts | 30° |
| 2026-04-27 15:16 | 43.69959 | 4.04097 | 19897 ft | 398 kts | 31° |
| 2026-04-27 15:17 | 43.72320 | 4.06092 | 20565 ft | 398 kts | 31° |
| 2026-04-27 15:17 | 43.74691 | 4.08102 | 21137 ft | 401 kts | 31° |
| 2026-04-27 15:17 | 43.77075 | 4.10129 | 21702 ft | 404 kts | 31° |
| 2026-04-27 15:17 | 43.79485 | 4.12184 | 22182 ft | 409 kts | 30° |
| 2026-04-27 15:18 | 43.81918 | 4.14259 | 22721 ft | 412 kts | 31° |
| 2026-04-27 15:18 | 43.84368 | 4.16352 | 23221 ft | 416 kts | 30° |
| 2026-04-27 15:18 | 43.86837 | 4.18461 | 23775 ft | 418 kts | 30° |
| 2026-04-27 15:18 | 43.89317 | 4.20581 | 24252 ft | 419 kts | 31° |
| 2026-04-27 15:19 | 43.91763 | 4.22676 | 24750 ft | 420 kts | 29° |
| 2026-04-27 15:19 | 43.94258 | 4.24813 | 25109 ft | 424 kts | 31° |
| 2026-04-27 15:19 | 43.96782 | 4.26978 | 25483 ft | 428 kts | 30° |
| 2026-04-27 15:19 | 43.99324 | 4.29161 | 25837 ft | 431 kts | 30° |
| 2026-04-27 15:20 | 44.01877 | 4.31358 | 26276 ft | 432 kts | 30° |
| 2026-04-27 15:20 | 44.04439 | 4.33563 | 26692 ft | 434 kts | 30° |
| 2026-04-27 15:20 | 44.07019 | 4.35787 | 27069 ft | 437 kts | 30° |
| 2026-04-27 15:20 | 44.09607 | 4.38020 | 27449 ft | 439 kts | 30° |
| 2026-04-27 15:21 | 44.12174 | 4.40236 | 27819 ft | 442 kts | 30° |
| 2026-04-27 15:21 | 44.14795 | 4.42501 | 28191 ft | 444 kts | 30° |
| 2026-04-27 15:21 | 44.17433 | 4.44783 | 28470 ft | 448 kts | 30° |
| 2026-04-27 15:21 | 44.20090 | 4.47084 | 28814 ft | 451 kts | 30° |
| 2026-04-27 15:22 | 44.22755 | 4.49395 | 29207 ft | 452 kts | 30° |
| 2026-04-27 15:22 | 44.25435 | 4.51722 | 29573 ft | 454 kts | 30° |
| 2026-04-27 15:22 | 44.28120 | 4.54055 | 29899 ft | 456 kts | 30° |
| 2026-04-27 15:22 | 44.30825 | 4.56408 | 30194 ft | 459 kts | 30° |
| 2026-04-27 15:23 | 44.33497 | 4.58736 | 30523 ft | 459 kts | 30° |
| 2026-04-27 15:23 | 44.36196 | 4.61090 | 30997 ft | 455 kts | 30° |
| 2026-04-27 15:23 | 44.38875 | 4.63430 | 31455 ft | 453 kts | 30° |
| 2026-04-27 15:23 | 44.41539 | 4.65758 | 31831 ft | 452 kts | 30° |
| 2026-04-27 15:24 | 44.44205 | 4.68090 | 32176 ft | 452 kts | 30° |
| 2026-04-27 15:24 | 44.46867 | 4.70421 | 32553 ft | 450 kts | 30° |
| 2026-04-27 15:24 | 44.49515 | 4.72742 | 32971 ft | 448 kts | 30° |
| 2026-04-27 15:24 | 44.52162 | 4.75030 | 33354 ft | 446 kts | 26° |
| 2026-04-27 15:25 | 44.55010 | 4.76671 | 33580 ft | 443 kts | 11° |
| 2026-04-27 15:25 | 44.58039 | 4.77291 | 33879 ft | 438 kts | 359° |
| 2026-04-27 15:25 | 44.61054 | 4.76975 | 34265 ft | 432 kts | 348° |
| 2026-04-27 15:25 | 44.64011 | 4.76287 | 34604 ft | 430 kts | 348° |
| 2026-04-27 15:26 | 44.66969 | 4.75577 | 34823 ft | 431 kts | 348° |
| 2026-04-27 15:26 | 44.69931 | 4.74873 | 35027 ft | 432 kts | 348° |
| 2026-04-27 15:26 | 44.72897 | 4.74184 | 35321 ft | 431 kts | 348° |
| 2026-04-27 15:26 | 44.75855 | 4.73511 | 35608 ft | 430 kts | 348° |
| 2026-04-27 15:27 | 44.78802 | 4.72849 | 35877 ft | 429 kts | 348° |
| 2026-04-27 15:27 | 44.81716 | 4.72200 | 36124 ft | 429 kts | 348° |
| 2026-04-27 15:27 | 44.84703 | 4.71536 | 36366 ft | 429 kts | 348° |
| 2026-04-27 15:27 | 44.87646 | 4.70882 | 36611 ft | 428 kts | 348° |
| 2026-04-27 15:28 | 44.90547 | 4.70236 | 36869 ft | 428 kts | 348° |
| 2026-04-27 15:28 | 44.93533 | 4.69570 | 37056 ft | 429 kts | 348° |
| 2026-04-27 15:28 | 44.96441 | 4.68920 | 37274 ft | 428 kts | 348° |
| 2026-04-27 15:28 | 44.99380 | 4.68263 | 37552 ft | 427 kts | 348° |
| 2026-04-27 15:29 | 45.02313 | 4.67606 | 37781 ft | 427 kts | 348° |
| 2026-04-27 15:29 | 45.05238 | 4.66950 | 37999 ft | 426 kts | 348° |
| 2026-04-27 15:29 | 45.11137 | 4.65624 | 38084 ft | 430 kts | 347° |
| 2026-04-27 15:30 | 45.17023 | 4.64302 | 38077 ft | 426 kts | 347° |
| 2026-04-27 15:30 | 45.22858 | 4.62980 | 38077 ft | 423 kts | 347° |
| 2026-04-27 15:31 | 45.28657 | 4.61650 | 38076 ft | 421 kts | 347° |
| 2026-04-27 15:31 | 45.34458 | 4.60316 | 38102 ft | 425 kts | 347° |
| 2026-04-27 15:32 | 45.40345 | 4.58958 | 38096 ft | 432 kts | 347° |
| 2026-04-27 15:32 | 45.46297 | 4.57587 | 38092 ft | 435 kts | 347° |
| 2026-04-27 15:33 | 45.52277 | 4.56208 | 38102 ft | 436 kts | 347° |
| 2026-04-27 15:33 | 45.58254 | 4.54827 | 38081 ft | 431 kts | 347° |
| 2026-04-27 15:34 | 45.64121 | 4.53468 | 38093 ft | 426 kts | 347° |
| 2026-04-27 15:34 | 45.69957 | 4.52110 | 38095 ft | 424 kts | 346° |
| 2026-04-27 15:35 | 45.75764 | 4.50758 | 38081 ft | 423 kts | 346° |
| 2026-04-27 15:35 | 45.81568 | 4.49408 | 38085 ft | 422 kts | 346° |
| 2026-04-27 15:36 | 45.87375 | 4.48053 | 38091 ft | 423 kts | 346° |
| 2026-04-27 15:36 | 45.93198 | 4.46692 | 38097 ft | 425 kts | 346° |
| 2026-04-27 15:37 | 45.99047 | 4.45321 | 38092 ft | 426 kts | 346° |
| 2026-04-27 15:37 | 46.04865 | 4.43955 | 38104 ft | 428 kts | 346° |
| 2026-04-27 15:38 | 46.10763 | 4.42567 | 38102 ft | 430 kts | 346° |
| 2026-04-27 15:38 | 46.16679 | 4.41173 | 38082 ft | 431 kts | 346° |
| 2026-04-27 15:39 | 46.22606 | 4.39773 | 38101 ft | 432 kts | 346° |
| 2026-04-27 15:39 | 46.28530 | 4.38359 | 38115 ft | 431 kts | 345° |
| 2026-04-27 15:40 | 46.34362 | 4.36474 | 38098 ft | 429 kts | 341° |
| 2026-04-27 15:40 | 46.40151 | 4.34367 | 38082 ft | 429 kts | 341° |
| 2026-04-27 15:41 | 46.45935 | 4.32284 | 38092 ft | 428 kts | 341° |
| 2026-04-27 15:41 | 46.51716 | 4.30239 | 38100 ft | 427 kts | 341° |
| 2026-04-27 15:42 | 46.57489 | 4.28206 | 38095 ft | 427 kts | 341° |
| 2026-04-27 15:42 | 46.63257 | 4.26173 | 38084 ft | 426 kts | 341° |
| 2026-04-27 15:43 | 46.69010 | 4.24140 | 38085 ft | 425 kts | 341° |
| 2026-04-27 15:43 | 46.74752 | 4.22105 | 38092 ft | 424 kts | 341° |
| 2026-04-27 15:44 | 46.80487 | 4.20068 | 38083 ft | 424 kts | 341° |
| 2026-04-27 15:44 | 46.86203 | 4.18034 | 38089 ft | 423 kts | 341° |
| 2026-04-27 15:45 | 46.91926 | 4.15992 | 38103 ft | 423 kts | 341° |
| 2026-04-27 15:45 | 46.97657 | 4.13943 | 38097 ft | 424 kts | 341° |
| 2026-04-27 15:46 | 47.03386 | 4.11891 | 38079 ft | 424 kts | 341° |
| 2026-04-27 15:46 | 47.09035 | 4.09518 | 38079 ft | 420 kts | 334° |
| 2026-04-27 15:47 | 47.14435 | 4.06284 | 38094 ft | 419 kts | 332° |
| 2026-04-27 15:47 | 47.19812 | 4.02984 | 38103 ft | 419 kts | 332° |
| 2026-04-27 15:48 | 47.25227 | 3.99725 | 38104 ft | 420 kts | 333° |
| 2026-04-27 15:49 | 47.33371 | 3.94869 | 38111 ft | 421 kts | 333° |
| 2026-04-27 15:49 | 47.37887 | 3.92172 | 38103 ft | 422 kts | 333° |
| 2026-04-27 15:50 | 47.43336 | 3.88911 | 38094 ft | 423 kts | 333° |
| 2026-04-27 15:50 | 47.48786 | 3.85641 | 38104 ft | 423 kts | 333° |
| 2026-04-27 15:51 | 47.54237 | 3.82364 | 38122 ft | 423 kts | 333° |
| 2026-04-27 15:51 | 47.59697 | 3.79083 | 38105 ft | 423 kts | 333° |
| 2026-04-27 15:52 | 47.65152 | 3.75814 | 38103 ft | 423 kts | 333° |
| 2026-04-27 15:52 | 47.70607 | 3.72537 | 38109 ft | 422 kts | 333° |
| 2026-04-27 15:53 | 47.76051 | 3.69256 | 38122 ft | 422 kts | 333° |
| 2026-04-27 15:53 | 47.81496 | 3.65966 | 38104 ft | 422 kts | 333° |
| 2026-04-27 15:54 | 47.86931 | 3.62675 | 38120 ft | 422 kts | 333° |
| 2026-04-27 15:54 | 47.92321 | 3.59404 | 38121 ft | 421 kts | 333° |
| 2026-04-27 15:55 | 47.97745 | 3.56104 | 38127 ft | 421 kts | 333° |
| 2026-04-27 15:55 | 48.03160 | 3.52781 | 38116 ft | 421 kts | 333° |
| 2026-04-27 15:56 | 48.08571 | 3.49446 | 38122 ft | 421 kts | 333° |
| 2026-04-27 15:56 | 48.13983 | 3.46104 | 38120 ft | 421 kts | 333° |
| 2026-04-27 15:57 | 48.19400 | 3.42752 | 38140 ft | 421 kts | 333° |
| 2026-04-27 15:57 | 48.24819 | 3.39393 | 38130 ft | 422 kts | 333° |
| 2026-04-27 15:58 | 48.30252 | 3.36017 | 38126 ft | 423 kts | 333° |
| 2026-04-27 15:58 | 48.35686 | 3.32632 | 38137 ft | 423 kts | 333° |
| 2026-04-27 15:59 | 48.41128 | 3.29235 | 38147 ft | 424 kts | 333° |
| 2026-04-27 15:59 | 48.46564 | 3.25786 | 38140 ft | 425 kts | 332° |
| 2026-04-27 16:00 | 48.52010 | 3.22304 | 38141 ft | 425 kts | 332° |
| 2026-04-27 16:00 | 48.57458 | 3.18816 | 38147 ft | 425 kts | 332° |
| 2026-04-27 16:01 | 48.62900 | 3.15328 | 38160 ft | 425 kts | 332° |
| 2026-04-27 16:01 | 48.68348 | 3.11827 | 38154 ft | 426 kts | 332° |
| 2026-04-27 16:02 | 48.73807 | 3.08312 | 38150 ft | 426 kts | 332° |
| 2026-04-27 16:02 | 48.79260 | 3.04792 | 38143 ft | 426 kts | 332° |
| 2026-04-27 16:03 | 48.84704 | 3.01243 | 38147 ft | 425 kts | 330° |
| 2026-04-27 16:03 | 48.89846 | 2.96957 | 38158 ft | 421 kts | 325° |
| 2026-04-27 16:04 | 48.94889 | 2.92415 | 38154 ft | 421 kts | 325° |
| 2026-04-27 16:04 | 48.99945 | 2.87899 | 38159 ft | 422 kts | 325° |
| 2026-04-27 16:05 | 49.04987 | 2.83441 | 38183 ft | 422 kts | 326° |
| 2026-04-27 16:05 | 49.10068 | 2.78959 | 38162 ft | 422 kts | 326° |
| 2026-04-27 16:06 | 49.15149 | 2.74469 | 38161 ft | 422 kts | 325° |
| 2026-04-27 16:06 | 49.20227 | 2.69970 | 38160 ft | 422 kts | 325° |
| 2026-04-27 16:07 | 49.25302 | 2.65462 | 38156 ft | 422 kts | 326° |
| 2026-04-27 16:07 | 49.30368 | 2.60950 | 38171 ft | 422 kts | 325° |
| 2026-04-27 16:08 | 49.35439 | 2.56423 | 38169 ft | 422 kts | 325° |
| 2026-04-27 16:08 | 49.40509 | 2.51886 | 38173 ft | 422 kts | 325° |
| 2026-04-27 16:09 | 49.45576 | 2.47340 | 38175 ft | 422 kts | 325° |
| 2026-04-27 16:09 | 49.52983 | 2.40108 | 38177 ft | 416 kts | 314° |
| 2026-04-27 16:10 | 49.61513 | 2.28187 | 38177 ft | 416 kts | 314° |
| 2026-04-27 16:11 | 49.67956 | 2.19229 | 38180 ft | 416 kts | 314° |
| 2026-04-27 16:12 | 49.74411 | 2.10254 | 38191 ft | 416 kts | 314° |
| 2026-04-27 16:13 | 49.80871 | 2.01236 | 38177 ft | 418 kts | 314° |
| 2026-04-27 16:13 | 49.87148 | 1.91917 | 38175 ft | 414 kts | 304° |
| 2026-04-27 16:14 | 49.90001 | 1.84282 | 38182 ft | 408 kts | 290° |
| 2026-04-27 16:14 | 49.92119 | 1.76111 | 38185 ft | 408 kts | 290° |
| 2026-04-27 16:15 | 49.96407 | 1.59764 | 38212 ft | 410 kts | 290° |
| 2026-04-27 16:16 | 49.99053 | 1.51974 | 38206 ft | 414 kts | 303° |
| 2026-04-27 16:16 | 50.03032 | 1.45440 | 38222 ft | 420 kts | 315° |
| 2026-04-27 16:17 | 50.11913 | 1.33526 | 37500 ft | 418 kts | 315° |
| 2026-04-27 16:18 | 50.16242 | 1.27644 | 36761 ft | 408 kts | 315° |
| 2026-04-27 16:18 | 50.20465 | 1.21862 | 36042 ft | 400 kts | 314° |
| 2026-04-27 16:19 | 50.22549 | 1.18999 | 35654 ft | 397 kts | 314° |
| 2026-04-27 16:19 | 50.24613 | 1.16161 | 35276 ft | 394 kts | 314° |
| 2026-04-27 16:20 | 50.30711 | 1.07757 | 34170 ft | 386 kts | 314° |
| 2026-04-27 16:20 | 50.32715 | 1.04989 | 33746 ft | 383 kts | 314° |
| 2026-04-27 16:20 | 50.36671 | 0.99515 | 32974 ft | 376 kts | 313° |
| 2026-04-27 16:21 | 50.38626 | 0.96805 | 32606 ft | 373 kts | 313° |
| 2026-04-27 16:21 | 50.44386 | 0.88806 | 31550 ft | 365 kts | 317° |
| 2026-04-27 16:22 | 50.46294 | 0.86209 | 31203 ft | 362 kts | 319° |
| 2026-04-27 16:22 | 50.50115 | 0.81148 | 30524 ft | 357 kts | 320° |
| 2026-04-27 16:22 | 50.52001 | 0.78641 | 30166 ft | 354 kts | 320° |
| 2026-04-27 16:23 | 50.53874 | 0.76143 | 29769 ft | 351 kts | 320° |
| 2026-04-27 16:23 | 50.57537 | 0.71259 | 29063 ft | 344 kts | 320° |
| 2026-04-27 16:23 | 50.59354 | 0.68840 | 28715 ft | 341 kts | 320° |
| 2026-04-27 16:24 | 50.61181 | 0.66405 | 28341 ft | 338 kts | 320° |
| 2026-04-27 16:24 | 50.64716 | 0.61684 | 27661 ft | 333 kts | 320° |
| 2026-04-27 16:25 | 50.68221 | 0.56994 | 26969 ft | 328 kts | 320° |
| 2026-04-27 16:25 | 50.71670 | 0.52366 | 26283 ft | 323 kts | 320° |
| 2026-04-27 16:26 | 50.75076 | 0.47790 | 25613 ft | 320 kts | 320° |
| 2026-04-27 16:26 | 50.78443 | 0.43254 | 24942 ft | 317 kts | 320° |
| 2026-04-27 16:27 | 50.81785 | 0.38742 | 24251 ft | 315 kts | 320° |
| 2026-04-27 16:27 | 50.86830 | 0.31907 | 23440 ft | 337 kts | 319° |
| 2026-04-27 16:28 | 50.90572 | 0.26822 | 22667 ft | 359 kts | 319° |
| 2026-04-27 16:28 | 50.94324 | 0.21716 | 21852 ft | 352 kts | 318° |
| 2026-04-27 16:29 | 50.99818 | 0.14218 | 20667 ft | 343 kts | 318° |
| 2026-04-27 16:30 | 51.03460 | 0.09517 | 20149 ft | 334 kts | 322° |
| 2026-04-27 16:30 | 51.07274 | 0.05352 | 19847 ft | 337 kts | 324° |
| 2026-04-27 16:31 | 51.13137 | -0.01036 | 19289 ft | 339 kts | 324° |
| 2026-04-27 16:31 | 51.16994 | -0.05297 | 18994 ft | 336 kts | 324° |
| 2026-04-27 16:32 | 51.20834 | -0.09561 | 18708 ft | 336 kts | 323° |
| 2026-04-27 16:32 | 51.22749 | -0.11693 | 18553 ft | 336 kts | 323° |
| 2026-04-27 16:33 | 51.26584 | -0.15972 | 18216 ft | 336 kts | 323° |
| 2026-04-27 16:33 | 51.28500 | -0.18114 | 18070 ft | 336 kts | 323° |
| 2026-04-27 16:33 | 51.30417 | -0.20260 | 17910 ft | 336 kts | 323° |
| 2026-04-27 16:33 | 51.32324 | -0.22396 | 17760 ft | 335 kts | 323° |
| 2026-04-27 16:34 | 51.34233 | -0.24536 | 17687 ft | 334 kts | 322° |
| 2026-04-27 16:34 | 51.36116 | -0.26648 | 17501 ft | 327 kts | 322° |
| 2026-04-27 16:34 | 51.37961 | -0.28718 | 17341 ft | 321 kts | 322° |
| 2026-04-27 16:34 | 51.39790 | -0.30776 | 17200 ft | 322 kts | 322° |
| 2026-04-27 16:35 | 51.41714 | -0.32640 | 17030 ft | 327 kts | 336° |
| 2026-04-27 16:35 | 51.43966 | -0.33309 | 16905 ft | 335 kts | 355° |
| 2026-04-27 16:35 | 51.48497 | -0.31232 | 16616 ft | 347 kts | 20° |
| 2026-04-27 16:36 | 51.50668 | -0.29541 | 16416 ft | 348 kts | 21° |
| 2026-04-27 16:36 | 51.52837 | -0.27817 | 16254 ft | 347 kts | 21° |
| 2026-04-27 16:36 | 51.55002 | -0.26109 | 16100 ft | 346 kts | 21° |
| 2026-04-27 16:36 | 51.57160 | -0.24423 | 15948 ft | 344 kts | 21° |
| 2026-04-27 16:37 | 51.59314 | -0.22754 | 15872 ft | 343 kts | 21° |
| 2026-04-27 16:37 | 51.61461 | -0.21099 | 15713 ft | 341 kts | 21° |
| 2026-04-27 16:37 | 51.63592 | -0.19460 | 15563 ft | 339 kts | 21° |
| 2026-04-27 16:37 | 51.65712 | -0.17827 | 15404 ft | 337 kts | 21° |
| 2026-04-27 16:38 | 51.67820 | -0.16202 | 15268 ft | 335 kts | 21° |
| 2026-04-27 16:38 | 51.69917 | -0.14584 | 15131 ft | 332 kts | 21° |
| 2026-04-27 16:38 | 51.71976 | -0.12991 | 15015 ft | 324 kts | 21° |
| 2026-04-27 16:38 | 51.73310 | -0.11958 | 14930 ft | 318 kts | 21° |
| 2026-04-27 16:39 | 51.75227 | -0.10286 | 14786 ft | 313 kts | 33° |
| 2026-04-27 16:39 | 51.76785 | -0.07851 | 14704 ft | 310 kts | 42° |
| 2026-04-27 16:39 | 51.78255 | -0.05324 | 14587 ft | 308 kts | 42° |
| 2026-04-27 16:39 | 51.79719 | -0.02806 | 14461 ft | 308 kts | 42° |
| 2026-04-27 16:40 | 51.81199 | -0.00280 | 14369 ft | 311 kts | 41° |
| 2026-04-27 16:40 | 51.83185 | 0.03089 | 14188 ft | 312 kts | 41° |
| 2026-04-27 16:40 | 51.84195 | 0.04798 | 14096 ft | 311 kts | 41° |
| 2026-04-27 16:40 | 51.85685 | 0.07318 | 13971 ft | 308 kts | 41° |
| 2026-04-27 16:41 | 51.87163 | 0.09813 | 13843 ft | 306 kts | 41° |
| 2026-04-27 16:41 | 51.88676 | 0.12196 | 13659 ft | 300 kts | 30° |
| 2026-04-27 16:41 | 51.90555 | 0.13341 | 13314 ft | 284 kts | 359° |
| 2026-04-27 16:41 | 51.92437 | 0.12875 | 12800 ft | 277 kts | 338° |
| 2026-04-27 16:42 | 51.94167 | 0.11447 | 12265 ft | 276 kts | 322° |
| 2026-04-27 16:42 | 51.95548 | 0.09304 | 11792 ft | 274 kts | 312° |
| 2026-04-27 16:42 | 51.96826 | 0.07017 | 11341 ft | 274 kts | 311° |
| 2026-04-27 16:42 | 51.98076 | 0.04747 | 10900 ft | 273 kts | 311° |
| 2026-04-27 16:43 | 51.99339 | 0.02457 | 10464 ft | 271 kts | 312° |
| 2026-04-27 16:43 | 52.00597 | 0.00187 | 9955 ft | 270 kts | 312° |
| 2026-04-27 16:43 | 52.01855 | -0.02077 | 9383 ft | 270 kts | 312° |
| 2026-04-27 16:43 | 52.03111 | -0.04332 | 8914 ft | 268 kts | 312° |
| 2026-04-27 16:44 | 52.04357 | -0.06564 | 8450 ft | 265 kts | 312° |
| 2026-04-27 16:44 | 52.05591 | -0.08777 | 8006 ft | 263 kts | 312° |
| 2026-04-27 16:44 | 52.06820 | -0.10983 | 7466 ft | 264 kts | 312° |
| 2026-04-27 16:44 | 52.08036 | -0.13200 | 7014 ft | 261 kts | 308° |
| 2026-04-27 16:45 | 52.08784 | -0.15858 | 6567 ft | 262 kts | 280° |
| 2026-04-27 16:45 | 52.08680 | -0.18824 | 6016 ft | 269 kts | 255° |
| 2026-04-27 16:45 | 52.07839 | -0.21515 | 5698 ft | 270 kts | 236° |
| 2026-04-27 16:45 | 52.06620 | -0.23833 | 5436 ft | 268 kts | 230° |
| 2026-04-27 16:46 | 52.05360 | -0.26061 | 5219 ft | 268 kts | 230° |
| 2026-04-27 16:46 | 52.04110 | -0.28284 | 5045 ft | 264 kts | 229° |
| 2026-04-27 16:46 | 52.02887 | -0.30463 | 5004 ft | 257 kts | 230° |
| 2026-04-27 16:46 | 52.01699 | -0.32605 | 5002 ft | 254 kts | 231° |
| 2026-04-27 16:47 | 52.00523 | -0.34731 | 4990 ft | 252 kts | 231° |
| 2026-04-27 16:47 | 51.99532 | -0.37017 | 4963 ft | 245 kts | 252° |
| 2026-04-27 16:47 | 51.99068 | -0.39634 | 4998 ft | 242 kts | 256° |
| 2026-04-27 16:47 | 51.98593 | -0.42258 | 5009 ft | 243 kts | 256° |
| 2026-04-27 16:48 | 51.98079 | -0.44886 | 4997 ft | 246 kts | 248° |
| 2026-04-27 16:48 | 51.97105 | -0.47172 | 5020 ft | 247 kts | 232° |
| 2026-04-27 16:48 | 51.96009 | -0.49327 | 5007 ft | 247 kts | 234° |
| 2026-04-27 16:49 | 51.93862 | -0.53681 | 5003 ft | 247 kts | 234° |
| 2026-04-27 16:49 | 51.92799 | -0.55861 | 5002 ft | 247 kts | 234° |
| 2026-04-27 16:49 | 51.91732 | -0.58049 | 4997 ft | 246 kts | 235° |
| 2026-04-27 16:49 | 51.90687 | -0.60191 | 4971 ft | 237 kts | 233° |
| 2026-04-27 16:50 | 51.89881 | -0.62381 | 5001 ft | 216 kts | 257° |
| 2026-04-27 16:50 | 51.89510 | -0.64666 | 4992 ft | 205 kts | 258° |
| 2026-04-27 16:50 | 51.89146 | -0.66781 | 4988 ft | 190 kts | 258° |
| 2026-04-27 16:50 | 51.88785 | -0.68867 | 5007 ft | 190 kts | 257° |
| 2026-04-27 16:51 | 51.88431 | -0.70902 | 4999 ft | 189 kts | 258° |
| 2026-04-27 16:51 | 51.88069 | -0.72969 | 4993 ft | 188 kts | 258° |
| 2026-04-27 16:51 | 51.87441 | -0.74811 | 4979 ft | 192 kts | 220° |
| 2026-04-27 16:51 | 51.86167 | -0.75555 | 4820 ft | 207 kts | 178° |
| 2026-04-27 16:52 | 51.84772 | -0.75041 | 4647 ft | 205 kts | 164° |
| 2026-04-27 16:52 | 51.83407 | -0.74400 | 4403 ft | 203 kts | 163° |
| 2026-04-27 16:52 | 51.82201 | -0.73325 | 4157 ft | 199 kts | 127° |
| 2026-04-27 16:52 | 51.81800 | -0.71304 | 4001 ft | 188 kts | 81° |
| 2026-04-27 16:53 | 51.82011 | -0.69245 | 3828 ft | 190 kts | 75° |
| 2026-04-27 16:53 | 51.82305 | -0.67139 | 3624 ft | 194 kts | 72° |
| 2026-04-27 16:53 | 51.82646 | -0.65018 | 3429 ft | 194 kts | 71° |
| 2026-04-27 16:53 | 51.82994 | -0.62952 | 3411 ft | 191 kts | 71° |
| 2026-04-27 16:54 | 51.83349 | -0.60868 | 3321 ft | 192 kts | 71° |
| 2026-04-27 16:54 | 51.83701 | -0.58795 | 3113 ft | 191 kts | 70° |
| 2026-04-27 16:54 | 51.84056 | -0.56724 | 2866 ft | 189 kts | 69° |
| 2026-04-27 16:54 | 51.84402 | -0.54694 | 2585 ft | 185 kts | 71° |
| 2026-04-27 16:55 | 51.84736 | -0.52728 | 2364 ft | 179 kts | 69° |
| 2026-04-27 16:55 | 51.85066 | -0.50802 | 2125 ft | 177 kts | 70° |
| 2026-04-27 16:55 | 51.85387 | -0.48919 | 1879 ft | 170 kts | 69° |
| 2026-04-27 16:55 | 51.85697 | -0.47115 | 1677 ft | 163 kts | 70° |
| 2026-04-27 16:56 | 51.85985 | -0.45431 | 1440 ft | 149 kts | 70° |
| 2026-04-27 16:56 | 51.86259 | -0.43834 | 1267 ft | 148 kts | 69° |
| 2026-04-27 16:56 | 51.86531 | -0.42257 | 1043 ft | 142 kts | 71° |
| 2026-04-27 16:56 | 51.86794 | -0.40725 | 897 ft | 142 kts | 70° |
| 2026-04-27 16:57 | 51.87067 | -0.39154 | 671 ft | 147 kts | 73° |
| 2026-04-27 16:57 | 51.87333 | -0.37609 | 535 ft | 136 kts | 73° |
| 2026-04-27 16:57 | 51.87492 | -0.36693 | 536 ft | 43 kts | 74° |
| 2026-04-27 16:57 | 51.87569 | -0.36243 | 531 ft | 30 kts | 75° |
| 2026-04-27 16:58 | 51.87619 | -0.35966 | 529 ft | 19 kts | 64° |
| 2026-04-27 16:58 | 51.87711 | -0.35934 | 530 ft | 14 kts | 345° |
| 2026-04-27 16:58 | 51.87784 | -0.36025 | 531 ft | 11 kts | 288° |
| 2026-04-27 16:58 | 51.87772 | -0.36149 | 531 ft | 11 kts | 255° |
| 2026-04-27 16:59 | 51.87752 | -0.36267 | 531 ft | 11 kts | 254° |
| 2026-04-27 16:59 | 51.87732 | -0.36382 | 532 ft | 10 kts | 254° |
| 2026-04-27 16:59 | 51.87712 | -0.36497 | 532 ft | 11 kts | 254° |
| 2026-04-27 16:59 | 51.87692 | -0.36612 | 532 ft | 10 kts | 254° |
| 2026-04-27 17:00 | 51.87660 | -0.36797 | 533 ft | 10 kts | 254° |
| 2026-04-27 17:00 | 51.87635 | -0.36940 | 533 ft | 10 kts | 254° |
| 2026-04-27 17:00 | 51.87616 | -0.37049 | 534 ft | 11 kts | 254° |
| 2026-04-27 17:01 | 51.87594 | -0.37179 | 534 ft | 13 kts | 254° |
| 2026-04-27 17:01 | 51.87578 | -0.37318 | 534 ft | 12 kts | 272° |
| 2026-04-27 17:01 | 51.87615 | -0.37437 | 535 ft | 12 kts | 317° |
| 2026-04-27 17:01 | 51.87681 | -0.37519 | 535 ft | 12 kts | 316° |
| 2026-04-27 17:02 | 51.87721 | -0.37633 | 535 ft | 12 kts | 295° |
| 2026-04-27 17:02 | 51.87754 | -0.37748 | 535 ft | 10 kts | 295° |
| 2026-04-27 17:02 | 51.87777 | -0.37828 | 535 ft | 7 kts | 295° |
| 2026-04-27 17:02 | 51.87798 | -0.37866 | 535 ft | 4 kts | 341° |
| 2026-04-27 17:03 | 51.87824 | -0.37857 | 535 ft | 3 kts | 25° |
| 2026-04-27 17:03 | 51.87837 | -0.37845 | 535 ft | 1 kts | 29° |
| 2026-04-27 17:03 | 51.87841 | -0.37841 | 535 ft | 0 kts | 29° |